Archival Weather

Norman Y Mineta San Jose Intl

San Jose, California (KSJC)

Report from: Wednesday, February 21, 2024 12:53 AM PST
Current time: Sunday, June 16, 2024 11:49 PM PDT

Current weather – Weather history – Daily summaries
Weather forecast

Temperature10.0°C (50.0°F)
Dew point8.3°C (46.9°F)
Winds Calm
Visibility10 mi. (16.1 km)
Clouds Ceiling: Broken clouds 4,800 ft. (1,463 m)
Altimeter30.08 in.Hg (1019 mB)
Precip last 3 hours0.01 in. (0 mm)
Relative humidity89 %
Density altitude-619 ft. (-189 m)
Sea-level pressure101.9 kPa (1019 mB, 30.08 in.Hg)
Remarks Fully automated report
Automated weather observing station with precipitation discriminator
Pressure rising more quickly
Flight conditions Visual Meteorological Conditions
Raw dataKSJC 210853Z AUTO 00000KT 10SM BKN048 10/08 A3008 RMK AO2 SLP185 60001 T01000083 53002
An error has occurred. This application may no longer respond until reloaded. Reload 🗙